Главная страница
METAR-TAF:

METAR-TAF

Аэропорты :

Торонто City Centre, Онтарио, Канада

широта: 43-38N, долгота: 079-24W, высота над уровнем моря: 77 м

Текущие метеонаблюдения

Эта сводка был подготовлена 55 минут назад, в 19:00 UTC
Ветер 7 Узел от южный
Температура 22°C
Влажность 57%
Давление 1018 hPa
Видимость: 14.5 км
ясное небо

METAR: CYTZ 181900Z AUTO 18007KT 9SM CLR 22/13 A3006 RMK SLP182 DENSITY ALT 900FT

Время: 15:55 (19:55 UTC)

Прогноз

Эта сводка был подготовлена 17 минут назад, в 19:38 UTC
Прогноз действительный с 18-го 20 UTC до 19-го 20 UTC
Ветер 7 Узел от южный
Видимость: 10 км
небольшая облачность на высоте 6000 фута
изменения
С 19-го 00 UTC до 19-го 02 UTC
Ветер 3 Узел переменных направлений
изменения
С 19-го 13 UTC до 19-го 15 UTC
Ветер 7 Узел от юго-восточный

TAF: CYTZ 181938Z 1820/1920 18007KT P6SM FEW060 BECMG 1900/1902 VRB03KT BECMG 1913/1915 14007KT RMK FCST BASED ON AUTO OBS. NXT FCST BY 190200Z

Метеонаблюдения и прогнозы для более 4000 аэропортов (сводки METAR и TAF).

Имеющиеся станции представлены на карте желтыми и красными точками.

Чтобы увидеть название станции, наведите на нее мышь.

Затем щелкните, чтобы увидеть метеонаблюдения и метеопрогнозы.

Управление картой: чтобы увеличить масштаб, щелкните зеленые кнопки с черным крестиком; чтобы уменьшить масштаб, щелкните зеленую кнопку с тире; для просмотра соседних карт щелкайте зеленые стрелки.


METAR-TAF: